HDA154 NZAA-NZCH
Flight info
| Callsign | HDA154 |
|---|---|
| Flight time | 1h 10m |
| Altitude | 34000 |
| Route | IGBAT H384 NP H252 NS Y288 IPRAK |
| Aircraft | A333/H-V/N |
Departure
| Time | 2026-05-03 21:46 |
|---|---|
| Airport | Auckland International Airport (NZAA) |
Arrival
| Time | 2026-05-03 22:56 |
|---|---|
| Airport | Christchurch International Airport (NZCH) |
| Time | Latitude | Longitude | Altitude | Speed | Heading |
|---|---|---|---|---|---|
| 2026-05-03 21:26 | -37.00859 | 174.78221 | 32 ft | 0 kts | 16° |
| 2026-05-03 21:35 | -37.00868 | 174.78217 | 32 ft | 2 kts | 16° |
| 2026-05-03 21:35 | -37.00883 | 174.78212 | 32 ft | 2 kts | 17° |
| 2026-05-03 21:35 | -37.00898 | 174.78203 | 32 ft | 2 kts | 41° |
| 2026-05-03 21:36 | -37.00910 | 174.78188 | 32 ft | 2 kts | 60° |
| 2026-05-03 21:36 | -37.00916 | 174.78169 | 31 ft | 2 kts | 78° |
| 2026-05-03 21:36 | -37.00917 | 174.78148 | 32 ft | 2 kts | 97° |
| 2026-05-03 21:36 | -37.00914 | 174.78131 | 32 ft | 0 kts | 114° |
| 2026-05-03 21:37 | -37.00912 | 174.78126 | 32 ft | 0 kts | 115° |
| 2026-05-03 21:40 | -37.00914 | 174.78130 | 32 ft | 3 kts | 117° |
| 2026-05-03 21:40 | -37.00963 | 174.78215 | 30 ft | 20 kts | 135° |
| 2026-05-03 21:41 | -37.01065 | 174.78372 | 30 ft | 29 kts | 92° |
| 2026-05-03 21:41 | -37.01001 | 174.78657 | 30 ft | 22 kts | 71° |
| 2026-05-03 21:41 | -37.00939 | 174.78879 | 32 ft | 29 kts | 70° |
| 2026-05-03 21:41 | -37.00861 | 174.79160 | 36 ft | 39 kts | 71° |
| 2026-05-03 21:42 | -37.00770 | 174.79513 | 36 ft | 23 kts | 73° |
| 2026-05-03 21:42 | -37.00766 | 174.79527 | 36 ft | 0 kts | 71° |
| 2026-05-03 21:42 | -37.00767 | 174.79526 | 36 ft | 0 kts | 71° |
| 2026-05-03 21:42 | -37.00769 | 174.79517 | 36 ft | 0 kts | 71° |
| 2026-05-03 21:44 | -37.00762 | 174.79542 | 36 ft | 16 kts | 70° |
| 2026-05-03 21:44 | -37.00706 | 174.79729 | 40 ft | 24 kts | 69° |
| 2026-05-03 21:44 | -37.00650 | 174.79925 | 40 ft | 23 kts | 71° |
| 2026-05-03 21:44 | -37.00597 | 174.80116 | 40 ft | 23 kts | 71° |
| 2026-05-03 21:45 | -37.00546 | 174.80306 | 39 ft | 22 kts | 71° |
| 2026-05-03 21:45 | -37.00568 | 174.80444 | 38 ft | 17 kts | 123° |
| 2026-05-03 21:45 | -37.00670 | 174.80498 | 36 ft | 23 kts | 221° |
| 2026-05-03 21:45 | -37.00697 | 174.80444 | 37 ft | 0 kts | 245° |
| 2026-05-03 21:46 | -37.00720 | 174.80371 | 38 ft | 41 kts | 250° |
| 2026-05-03 21:46 | -37.00922 | 174.79652 | 36 ft | 131 kts | 250° |
| 2026-05-03 21:46 | -37.01291 | 174.78332 | 291 ft | 179 kts | 251° |
| 2026-05-03 21:46 | -37.01730 | 174.76813 | 1083 ft | 197 kts | 252° |
| 2026-05-03 21:47 | -37.02162 | 174.75198 | 1820 ft | 204 kts | 252° |
| 2026-05-03 21:47 | -37.02632 | 174.73471 | 2367 ft | 218 kts | 252° |
| 2026-05-03 21:47 | -37.03136 | 174.71631 | 2930 ft | 234 kts | 251° |
| 2026-05-03 21:47 | -37.03682 | 174.69647 | 3509 ft | 250 kts | 251° |
| 2026-05-03 21:48 | -37.04263 | 174.67535 | 4092 ft | 267 kts | 251° |
| 2026-05-03 21:48 | -37.05094 | 174.65414 | 4821 ft | 276 kts | 230° |
| 2026-05-03 21:48 | -37.06590 | 174.63953 | 5665 ft | 276 kts | 201° |
| 2026-05-03 21:48 | -37.08413 | 174.63382 | 6542 ft | 275 kts | 188° |
| 2026-05-03 21:49 | -37.10294 | 174.62811 | 7390 ft | 281 kts | 192° |
| 2026-05-03 21:49 | -37.12180 | 174.62183 | 8233 ft | 284 kts | 192° |
| 2026-05-03 21:49 | -37.14084 | 174.61534 | 9070 ft | 288 kts | 192° |
| 2026-05-03 21:49 | -37.16027 | 174.60869 | 9899 ft | 291 kts | 192° |
| 2026-05-03 21:50 | -37.17982 | 174.60199 | 10560 ft | 301 kts | 192° |
| 2026-05-03 21:50 | -37.20074 | 174.59480 | 11012 ft | 319 kts | 192° |
| 2026-05-03 21:50 | -37.22281 | 174.58723 | 11425 ft | 337 kts | 192° |
| 2026-05-03 21:50 | -37.24589 | 174.58070 | 11790 ft | 353 kts | 185° |
| 2026-05-03 21:51 | -37.27120 | 174.57622 | 12162 ft | 371 kts | 186° |
| 2026-05-03 21:51 | -37.29677 | 174.57136 | 12715 ft | 381 kts | 186° |
| 2026-05-03 21:51 | -37.32305 | 174.56639 | 13420 ft | 385 kts | 186° |
| 2026-05-03 21:51 | -37.35006 | 174.56130 | 14164 ft | 389 kts | 186° |
| 2026-05-03 21:52 | -37.37695 | 174.55620 | 14878 ft | 393 kts | 186° |
| 2026-05-03 21:52 | -37.40389 | 174.55110 | 15567 ft | 396 kts | 186° |
| 2026-05-03 21:52 | -37.43127 | 174.54590 | 16250 ft | 400 kts | 186° |
| 2026-05-03 21:52 | -37.45879 | 174.54069 | 16892 ft | 404 kts | 187° |
| 2026-05-03 21:53 | -37.48658 | 174.53543 | 17539 ft | 407 kts | 187° |
| 2026-05-03 21:53 | -37.51436 | 174.53015 | 18151 ft | 411 kts | 187° |
| 2026-05-03 21:53 | -37.54237 | 174.52516 | 18729 ft | 414 kts | 184° |
| 2026-05-03 21:53 | -37.57110 | 174.52409 | 19324 ft | 417 kts | 179° |
| 2026-05-03 21:54 | -37.59963 | 174.52328 | 19912 ft | 420 kts | 179° |
| 2026-05-03 21:54 | -37.62884 | 174.52245 | 20498 ft | 423 kts | 179° |
| 2026-05-03 21:54 | -37.65830 | 174.52159 | 21078 ft | 426 kts | 179° |
| 2026-05-03 21:54 | -37.68807 | 174.52071 | 21633 ft | 429 kts | 180° |
| 2026-05-03 21:55 | -37.71787 | 174.51984 | 22171 ft | 432 kts | 180° |
| 2026-05-03 21:55 | -37.74754 | 174.51897 | 22688 ft | 434 kts | 180° |
| 2026-05-03 21:55 | -37.77783 | 174.51807 | 23209 ft | 437 kts | 180° |
| 2026-05-03 21:55 | -37.80799 | 174.51717 | 23709 ft | 440 kts | 180° |
| 2026-05-03 21:56 | -37.83875 | 174.51625 | 24177 ft | 443 kts | 180° |
| 2026-05-03 21:56 | -37.86945 | 174.51535 | 24636 ft | 446 kts | 180° |
| 2026-05-03 21:56 | -37.90110 | 174.51440 | 25105 ft | 449 kts | 180° |
| 2026-05-03 21:56 | -37.93222 | 174.51349 | 25561 ft | 452 kts | 180° |
| 2026-05-03 21:57 | -37.96379 | 174.51253 | 26035 ft | 454 kts | 180° |
| 2026-05-03 21:57 | -37.99516 | 174.50693 | 26431 ft | 459 kts | 193° |
| 2026-05-03 21:57 | -38.02595 | 174.49680 | 26883 ft | 461 kts | 193° |
| 2026-05-03 21:57 | -38.05715 | 174.48695 | 27318 ft | 464 kts | 193° |
| 2026-05-03 21:58 | -38.08878 | 174.47699 | 27762 ft | 466 kts | 193° |
| 2026-05-03 21:58 | -38.11995 | 174.46716 | 28182 ft | 468 kts | 193° |
| 2026-05-03 21:58 | -38.15156 | 174.45718 | 28601 ft | 471 kts | 193° |
| 2026-05-03 21:58 | -38.18365 | 174.44707 | 29018 ft | 473 kts | 193° |
| 2026-05-03 21:59 | -38.21546 | 174.43701 | 29459 ft | 474 kts | 193° |
| 2026-05-03 21:59 | -38.24711 | 174.42702 | 29937 ft | 474 kts | 193° |
| 2026-05-03 21:59 | -38.27817 | 174.41717 | 30429 ft | 472 kts | 193° |
| 2026-05-03 21:59 | -38.30985 | 174.40715 | 30911 ft | 471 kts | 193° |
| 2026-05-03 22:00 | -38.34143 | 174.39714 | 31397 ft | 470 kts | 193° |
| 2026-05-03 22:00 | -38.37297 | 174.38713 | 31865 ft | 469 kts | 193° |
| 2026-05-03 22:00 | -38.40407 | 174.37726 | 32322 ft | 467 kts | 193° |
| 2026-05-03 22:00 | -38.43554 | 174.36725 | 32781 ft | 466 kts | 193° |
| 2026-05-03 22:01 | -38.46679 | 174.35731 | 33227 ft | 464 kts | 193° |
| 2026-05-03 22:01 | -38.49815 | 174.34734 | 33666 ft | 463 kts | 193° |
| 2026-05-03 22:01 | -38.52897 | 174.33751 | 34068 ft | 461 kts | 193° |
| 2026-05-03 22:01 | -38.56000 | 174.32761 | 34424 ft | 460 kts | 193° |
| 2026-05-03 22:02 | -38.59097 | 174.31773 | 34612 ft | 462 kts | 193° |
| 2026-05-03 22:02 | -38.62214 | 174.30775 | 34584 ft | 463 kts | 193° |
| 2026-05-03 22:02 | -38.68412 | 174.28793 | 34561 ft | 458 kts | 193° |
| 2026-05-03 22:03 | -38.74363 | 174.26884 | 34560 ft | 459 kts | 193° |
| 2026-05-03 22:03 | -38.80182 | 174.25018 | 34565 ft | 459 kts | 193° |
| 2026-05-03 22:04 | -38.85951 | 174.23161 | 34571 ft | 459 kts | 193° |
| 2026-05-03 22:04 | -38.92091 | 174.21184 | 34572 ft | 458 kts | 193° |
| 2026-05-03 22:05 | -38.98260 | 174.19192 | 34572 ft | 458 kts | 193° |
| 2026-05-03 22:05 | -39.04371 | 174.16940 | 34573 ft | 459 kts | 197° |
| 2026-05-03 22:06 | -39.10465 | 174.14430 | 34559 ft | 458 kts | 196° |
| 2026-05-03 22:06 | -39.16523 | 174.11954 | 34548 ft | 458 kts | 196° |
| 2026-05-03 22:07 | -39.22590 | 174.09471 | 34539 ft | 458 kts | 196° |
| 2026-05-03 22:07 | -39.28663 | 174.06981 | 34550 ft | 458 kts | 196° |
| 2026-05-03 22:08 | -39.34718 | 174.04494 | 34536 ft | 458 kts | 196° |
| 2026-05-03 22:08 | -39.40729 | 174.02020 | 34526 ft | 458 kts | 196° |
| 2026-05-03 22:09 | -39.46793 | 173.99521 | 34537 ft | 458 kts | 196° |
| 2026-05-03 22:10 | -39.55849 | 173.95779 | 34543 ft | 458 kts | 196° |
| 2026-05-03 22:10 | -39.61904 | 173.93272 | 34541 ft | 457 kts | 196° |
| 2026-05-03 22:11 | -39.67940 | 173.90768 | 34547 ft | 457 kts | 196° |
| 2026-05-03 22:11 | -39.73999 | 173.88252 | 34543 ft | 456 kts | 196° |
| 2026-05-03 22:12 | -39.79984 | 173.85759 | 34547 ft | 456 kts | 196° |
| 2026-05-03 22:12 | -39.86026 | 173.83240 | 34544 ft | 456 kts | 196° |
| 2026-05-03 22:13 | -39.92063 | 173.80718 | 34539 ft | 456 kts | 196° |
| 2026-05-03 22:13 | -39.98084 | 173.78198 | 34531 ft | 455 kts | 196° |
| 2026-05-03 22:14 | -40.04092 | 173.75679 | 34541 ft | 455 kts | 196° |
| 2026-05-03 22:14 | -40.10076 | 173.73166 | 34541 ft | 454 kts | 196° |
| 2026-05-03 22:15 | -40.15937 | 173.70699 | 34532 ft | 454 kts | 196° |
| 2026-05-03 22:15 | -40.21962 | 173.68159 | 34523 ft | 454 kts | 196° |
| 2026-05-03 22:16 | -40.27947 | 173.65631 | 34526 ft | 454 kts | 196° |
| 2026-05-03 22:16 | -40.33949 | 173.63092 | 34550 ft | 454 kts | 196° |
| 2026-05-03 22:17 | -40.39946 | 173.60550 | 34535 ft | 452 kts | 196° |
| 2026-05-03 22:17 | -40.45907 | 173.58019 | 34543 ft | 452 kts | 197° |
| 2026-05-03 22:18 | -40.51870 | 173.55481 | 34529 ft | 451 kts | 197° |
| 2026-05-03 22:18 | -40.57843 | 173.52934 | 34520 ft | 451 kts | 197° |
| 2026-05-03 22:19 | -40.63769 | 173.50403 | 34516 ft | 451 kts | 197° |
| 2026-05-03 22:19 | -40.69746 | 173.47845 | 34510 ft | 451 kts | 197° |
| 2026-05-03 22:20 | -40.75690 | 173.45299 | 34517 ft | 450 kts | 197° |
| 2026-05-03 22:20 | -40.81651 | 173.42740 | 34526 ft | 450 kts | 197° |
| 2026-05-03 22:21 | -40.87606 | 173.40176 | 34503 ft | 449 kts | 197° |
| 2026-05-03 22:21 | -40.93534 | 173.37622 | 34491 ft | 450 kts | 197° |
| 2026-05-03 22:22 | -40.99496 | 173.35046 | 34500 ft | 450 kts | 197° |
| 2026-05-03 22:22 | -41.05326 | 173.32524 | 34495 ft | 451 kts | 197° |
| 2026-05-03 22:23 | -41.11318 | 173.29927 | 34494 ft | 450 kts | 198° |
| 2026-05-03 22:23 | -41.17239 | 173.27356 | 34501 ft | 450 kts | 198° |
| 2026-05-03 22:24 | -41.23200 | 173.24760 | 34492 ft | 450 kts | 198° |
| 2026-05-03 22:24 | -41.29137 | 173.22172 | 34500 ft | 450 kts | 198° |
| 2026-05-03 22:25 | -41.35061 | 173.19835 | 34498 ft | 450 kts | 195° |
| 2026-05-03 22:25 | -41.41090 | 173.17528 | 34489 ft | 450 kts | 195° |
| 2026-05-03 22:26 | -41.46934 | 173.15286 | 34497 ft | 450 kts | 195° |
| 2026-05-03 22:26 | -41.52856 | 173.13008 | 34503 ft | 450 kts | 195° |
| 2026-05-03 22:27 | -41.58844 | 173.10700 | 34498 ft | 450 kts | 196° |
| 2026-05-03 22:27 | -41.64745 | 173.08421 | 34501 ft | 450 kts | 196° |
| 2026-05-03 22:28 | -41.70596 | 173.06158 | 34279 ft | 452 kts | 195° |
| 2026-05-03 22:28 | -41.73564 | 173.05008 | 34051 ft | 450 kts | 195° |
| 2026-05-03 22:28 | -41.76492 | 173.03873 | 33819 ft | 449 kts | 195° |
| 2026-05-03 22:28 | -41.79474 | 173.02714 | 33533 ft | 451 kts | 195° |
| 2026-05-03 22:29 | -41.82456 | 173.01556 | 32804 ft | 458 kts | 195° |
| 2026-05-03 22:29 | -41.85509 | 173.00369 | 32056 ft | 460 kts | 195° |
| 2026-05-03 22:29 | -41.88496 | 172.99206 | 31399 ft | 460 kts | 195° |
| 2026-05-03 22:29 | -41.91522 | 172.98027 | 30803 ft | 457 kts | 195° |
| 2026-05-03 22:30 | -41.94506 | 172.96864 | 30247 ft | 454 kts | 195° |
| 2026-05-03 22:30 | -41.97471 | 172.95706 | 29720 ft | 451 kts | 195° |
| 2026-05-03 22:30 | -42.00457 | 172.94540 | 29169 ft | 449 kts | 195° |
| 2026-05-03 22:30 | -42.03415 | 172.93382 | 28609 ft | 446 kts | 195° |
| 2026-05-03 22:31 | -42.06358 | 172.92230 | 28049 ft | 443 kts | 195° |
| 2026-05-03 22:31 | -42.09304 | 172.91075 | 27499 ft | 440 kts | 196° |
| 2026-05-03 22:31 | -42.12194 | 172.89941 | 26991 ft | 436 kts | 196° |
| 2026-05-03 22:31 | -42.15012 | 172.88835 | 26511 ft | 431 kts | 196° |
| 2026-05-03 22:32 | -42.17794 | 172.87743 | 26048 ft | 426 kts | 196° |
| 2026-05-03 22:32 | -42.20577 | 172.86647 | 25590 ft | 421 kts | 196° |
| 2026-05-03 22:32 | -42.23284 | 172.85582 | 25123 ft | 417 kts | 196° |
| 2026-05-03 22:32 | -42.25997 | 172.84512 | 24633 ft | 412 kts | 197° |
| 2026-05-03 22:33 | -42.28674 | 172.83456 | 24125 ft | 408 kts | 197° |
| 2026-05-03 22:33 | -42.31303 | 172.82419 | 23609 ft | 405 kts | 197° |
| 2026-05-03 22:33 | -42.33947 | 172.81374 | 23081 ft | 401 kts | 197° |
| 2026-05-03 22:33 | -42.36582 | 172.80330 | 22555 ft | 398 kts | 197° |
| 2026-05-03 22:34 | -42.39203 | 172.79294 | 22049 ft | 393 kts | 197° |
| 2026-05-03 22:34 | -42.41735 | 172.78290 | 21569 ft | 389 kts | 197° |
| 2026-05-03 22:34 | -42.44321 | 172.77264 | 21084 ft | 384 kts | 197° |
| 2026-05-03 22:34 | -42.46777 | 172.76291 | 20635 ft | 379 kts | 197° |
| 2026-05-03 22:35 | -42.49266 | 172.75302 | 20181 ft | 374 kts | 197° |
| 2026-05-03 22:35 | -42.51723 | 172.74326 | 19738 ft | 370 kts | 197° |
| 2026-05-03 22:35 | -42.54136 | 172.73364 | 19297 ft | 365 kts | 197° |
| 2026-05-03 22:35 | -42.56517 | 172.72418 | 18864 ft | 361 kts | 197° |
| 2026-05-03 22:36 | -42.58870 | 172.71480 | 18424 ft | 357 kts | 197° |
| 2026-05-03 22:36 | -42.61237 | 172.70535 | 17985 ft | 355 kts | 197° |
| 2026-05-03 22:36 | -42.63585 | 172.69598 | 17558 ft | 353 kts | 197° |
| 2026-05-03 22:36 | -42.65952 | 172.68654 | 17119 ft | 350 kts | 197° |
| 2026-05-03 22:37 | -42.68248 | 172.67735 | 16677 ft | 348 kts | 197° |
| 2026-05-03 22:37 | -42.70570 | 172.66806 | 16243 ft | 345 kts | 197° |
| 2026-05-03 22:37 | -42.72839 | 172.65898 | 15801 ft | 343 kts | 197° |
| 2026-05-03 22:37 | -42.75102 | 172.64992 | 15347 ft | 341 kts | 197° |
| 2026-05-03 22:38 | -42.77297 | 172.64113 | 14901 ft | 339 kts | 198° |
| 2026-05-03 22:38 | -42.79510 | 172.63223 | 14447 ft | 337 kts | 198° |
| 2026-05-03 22:38 | -42.81756 | 172.62323 | 13978 ft | 335 kts | 198° |
| 2026-05-03 22:38 | -42.83956 | 172.61438 | 13520 ft | 334 kts | 198° |
| 2026-05-03 22:39 | -42.86171 | 172.60539 | 13036 ft | 332 kts | 198° |
| 2026-05-03 22:39 | -42.88370 | 172.59645 | 12577 ft | 330 kts | 198° |
| 2026-05-03 22:39 | -42.90571 | 172.58751 | 12128 ft | 328 kts | 198° |
| 2026-05-03 22:39 | -42.92730 | 172.57872 | 11708 ft | 325 kts | 198° |
| 2026-05-03 22:40 | -42.94897 | 172.56988 | 11289 ft | 322 kts | 198° |
| 2026-05-03 22:40 | -42.97024 | 172.56123 | 10894 ft | 318 kts | 198° |
| 2026-05-03 22:40 | -42.99125 | 172.55267 | 10542 ft | 313 kts | 198° |
| 2026-05-03 22:40 | -43.01177 | 172.54430 | 10427 ft | 307 kts | 198° |
| 2026-05-03 22:41 | -43.03172 | 172.53616 | 10338 ft | 295 kts | 198° |
| 2026-05-03 22:41 | -43.05080 | 172.52835 | 10252 ft | 284 kts | 198° |
| 2026-05-03 22:41 | -43.06947 | 172.52072 | 10176 ft | 273 kts | 198° |
| 2026-05-03 22:41 | -43.08692 | 172.51358 | 10063 ft | 271 kts | 198° |
| 2026-05-03 22:42 | -43.10479 | 172.50627 | 10015 ft | 262 kts | 198° |
| 2026-05-03 22:42 | -43.12168 | 172.49936 | 9938 ft | 255 kts | 198° |
| 2026-05-03 22:42 | -43.13860 | 172.49243 | 9855 ft | 254 kts | 198° |
| 2026-05-03 22:42 | -43.15542 | 172.48552 | 9611 ft | 256 kts | 198° |
| 2026-05-03 22:43 | -43.17182 | 172.47881 | 9376 ft | 254 kts | 198° |
| 2026-05-03 22:43 | -43.18849 | 172.47197 | 9129 ft | 253 kts | 198° |
| 2026-05-03 22:43 | -43.20494 | 172.46521 | 8896 ft | 252 kts | 198° |
| 2026-05-03 22:43 | -43.22132 | 172.45848 | 8662 ft | 251 kts | 198° |
| 2026-05-03 22:44 | -43.23760 | 172.45178 | 8432 ft | 251 kts | 198° |
| 2026-05-03 22:44 | -43.25399 | 172.44502 | 8198 ft | 250 kts | 198° |
| 2026-05-03 22:44 | -43.27031 | 172.43831 | 7979 ft | 250 kts | 198° |
| 2026-05-03 22:44 | -43.28672 | 172.43156 | 7748 ft | 250 kts | 198° |
| 2026-05-03 22:45 | -43.30304 | 172.42484 | 7514 ft | 250 kts | 198° |
| 2026-05-03 22:45 | -43.31942 | 172.41809 | 7282 ft | 249 kts | 198° |
| 2026-05-03 22:45 | -43.33574 | 172.41136 | 7059 ft | 249 kts | 198° |
| 2026-05-03 22:45 | -43.35204 | 172.40462 | 6961 ft | 248 kts | 198° |
| 2026-05-03 22:46 | -43.36847 | 172.39784 | 6856 ft | 244 kts | 198° |
| 2026-05-03 22:46 | -43.38423 | 172.39133 | 6766 ft | 237 kts | 198° |
| 2026-05-03 22:46 | -43.39959 | 172.38490 | 6685 ft | 236 kts | 200° |
| 2026-05-03 22:46 | -43.41460 | 172.37665 | 6333 ft | 245 kts | 205° |
| 2026-05-03 22:47 | -43.42994 | 172.36703 | 5968 ft | 249 kts | 205° |
| 2026-05-03 22:47 | -43.44532 | 172.35727 | 5733 ft | 249 kts | 205° |
| 2026-05-03 22:47 | -43.46084 | 172.34731 | 5467 ft | 249 kts | 206° |
| 2026-05-03 22:47 | -43.47605 | 172.33751 | 5205 ft | 249 kts | 206° |
| 2026-05-03 22:48 | -43.49146 | 172.32753 | 4937 ft | 249 kts | 206° |
| 2026-05-03 22:48 | -43.50654 | 172.31776 | 4827 ft | 241 kts | 206° |
| 2026-05-03 22:48 | -43.52124 | 172.30823 | 4766 ft | 233 kts | 206° |
| 2026-05-03 22:48 | -43.53556 | 172.29895 | 4588 ft | 228 kts | 206° |
| 2026-05-03 22:49 | -43.54900 | 172.28848 | 4202 ft | 226 kts | 221° |
| 2026-05-03 22:49 | -43.56057 | 172.27394 | 3814 ft | 226 kts | 224° |
| 2026-05-03 22:49 | -43.57202 | 172.25923 | 3446 ft | 226 kts | 224° |
| 2026-05-03 22:49 | -43.58340 | 172.24469 | 3094 ft | 225 kts | 224° |
| 2026-05-03 22:50 | -43.59493 | 172.23027 | 2747 ft | 223 kts | 217° |
| 2026-05-03 22:50 | -43.60917 | 172.22267 | 2397 ft | 221 kts | 182° |
| 2026-05-03 22:50 | -43.62339 | 172.22742 | 2276 ft | 207 kts | 146° |
| 2026-05-03 22:50 | -43.63235 | 172.24184 | 2067 ft | 198 kts | 108° |
| 2026-05-03 22:51 | -43.63399 | 172.25944 | 1942 ft | 193 kts | 84° |
| 2026-05-03 22:51 | -43.63189 | 172.27742 | 1954 ft | 193 kts | 76° |
| 2026-05-03 22:51 | -43.62844 | 172.29480 | 1945 ft | 192 kts | 71° |
| 2026-05-03 22:51 | -43.62420 | 172.31241 | 1943 ft | 193 kts | 70° |
| 2026-05-03 22:52 | -43.61984 | 172.32925 | 1939 ft | 193 kts | 69° |
| 2026-05-03 22:52 | -43.61551 | 172.34546 | 1940 ft | 191 kts | 69° |
| 2026-05-03 22:52 | -43.61107 | 172.36188 | 1908 ft | 183 kts | 69° |
| 2026-05-03 22:52 | -43.60661 | 172.37823 | 1934 ft | 180 kts | 69° |
| 2026-05-03 22:53 | -43.60226 | 172.39420 | 1944 ft | 181 kts | 69° |
| 2026-05-03 22:53 | -43.59591 | 172.40897 | 1937 ft | 181 kts | 39° |
| 2026-05-03 22:53 | -43.58628 | 172.41957 | 1971 ft | 181 kts | 39° |
| 2026-05-03 22:53 | -43.57687 | 172.43071 | 1973 ft | 177 kts | 39° |
| 2026-05-03 22:54 | -43.56758 | 172.44150 | 2014 ft | 179 kts | 39° |
| 2026-05-03 22:54 | -43.55829 | 172.45221 | 1747 ft | 175 kts | 39° |
| 2026-05-03 22:54 | -43.54952 | 172.46230 | 1517 ft | 172 kts | 39° |
| 2026-05-03 22:54 | -43.54102 | 172.47212 | 1310 ft | 163 kts | 40° |
| 2026-05-03 22:55 | -43.53256 | 172.48195 | 1074 ft | 160 kts | 39° |
| 2026-05-03 22:55 | -43.52406 | 172.49175 | 858 ft | 160 kts | 39° |
| 2026-05-03 22:55 | -43.51578 | 172.50125 | 634 ft | 152 kts | 39° |
| 2026-05-03 22:55 | -43.50792 | 172.51039 | 434 ft | 149 kts | 39° |
| 2026-05-03 22:56 | -43.50018 | 172.51932 | 232 ft | 150 kts | 40° |
| 2026-05-03 22:56 | -43.49243 | 172.52803 | 125 ft | 145 kts | 42° |
| 2026-05-03 22:56 | -43.48530 | 172.53630 | 111 ft | 121 kts | 36° |
| 2026-05-03 22:56 | -43.48095 | 172.54143 | 107 ft | 25 kts | 141° |
| 2026-05-03 22:57 | -43.48088 | 172.54156 | 107 ft | 0 kts | 153° |